Time;durP1;ratioP1;P1;durP2;ratioP2;P2;SDS_P1;SDS_P2;PMS_P1;PMS_P2;Temp;Humidity;BMP_temperature;BMP_pressure;BME280_temperature;BME280_humidity;BME280_pressure;Samples;Min_cycle;Max_cycle;Signal;HPM_P1;HPM_P2
2023/04/22 00:00:44;;;;;;;10.70;9.70;;;;;;;13.78;90.64;97520.69;4186483;28;20645;-81
2023/04/22 00:02:47;;;;;;;10.47;9.37;;;;;;;13.78;90.80;97522.50;4184278;28;20636;-81
2023/04/22 00:04:53;;;;;;;10.80;8.17;;;;;;;13.78;90.90;97517.25;4186775;28;20678;-81
2023/04/22 00:06:57;;;;;;;9.63;8.60;;;;;;;13.75;90.31;97513.09;4186065;28;20626;-81
2023/04/22 00:09:01;;;;;;;9.30;8.40;;;;;;;13.76;90.50;97517.41;4181384;28;20708;-81
2023/04/22 00:11:07;;;;;;;9.90;8.90;;;;;;;13.74;91.00;97511.47;4188647;28;20678;-81
2023/04/22 00:13:10;;;;;;;14.80;8.97;;;;;;;13.73;90.75;97514.22;4188141;28;21012;-81
2023/04/22 00:15:14;;;;;;;9.23;8.33;;;;;;;13.72;90.86;97509.94;4196903;28;20632;-81
2023/04/22 00:17:17;;;;;;;10.40;9.30;;;;;;;13.73;90.82;97514.22;4167387;28;20658;-81
2023/04/22 00:19:20;;;;;;;9.80;8.80;;;;;;;13.69;90.56;97508.41;4175664;28;20629;-81
2023/04/22 00:21:23;;;;;;;8.93;8.13;;;;;;;13.68;91.00;97509.41;4168228;28;20639;-81
2023/04/22 00:23:26;;;;;;;9.60;8.60;;;;;;;13.66;90.77;97511.31;4191075;28;20638;-81
2023/04/22 00:25:31;;;;;;;9.50;8.50;;;;;;;13.66;90.62;97513.94;4187203;28;20643;-81
2023/04/22 00:27:34;;;;;;;9.50;8.60;;;;;;;13.65;90.91;97507.06;4186858;28;21264;-81
2023/04/22 00:29:38;;;;;;;9.50;8.20;;;;;;;13.65;91.28;97508.81;4189032;28;20692;-81
2023/04/22 00:31:41;;;;;;;9.00;8.10;;;;;;;13.64;91.24;97497.53;4170395;28;20690;-81
2023/04/22 00:33:44;;;;;;;9.17;8.27;;;;;;;13.64;90.52;97500.16;4185726;28;20736;-81
2023/04/22 00:35:48;;;;;;;10.43;9.10;;;;;;;13.64;91.01;97498.50;4184993;28;20676;-81
2023/04/22 00:37:51;;;;;;;10.50;8.67;;;;;;;13.64;91.11;97503.75;4184485;28;20705;-81
2023/04/22 00:39:56;;;;;;;9.87;8.90;;;;;;;13.62;90.64;97509.13;4184813;28;20650;-81
2023/04/22 00:42:02;;;;;;;11.47;8.90;;;;;;;13.61;90.59;97501.41;4171155;28;20730;-81
2023/04/22 00:44:05;;;;;;;9.60;8.17;;;;;;;13.59;90.51;97498.94;4168689;28;20648;-81
2023/04/22 00:46:09;;;;;;;9.07;7.87;;;;;;;13.58;90.87;97497.25;4168930;28;20634;-81
2023/04/22 00:48:13;;;;;;;9.93;8.93;;;;;;;13.56;91.14;97495.72;4171713;28;20638;-81
2023/04/22 00:50:16;;;;;;;10.50;8.40;;;;;;;13.55;91.18;97507.19;4187858;28;20650;-81
2023/04/22 00:52:19;;;;;;;11.63;8.90;;;;;;;13.52;91.42;97508.28;4181393;28;20635;-81
2023/04/22 00:54:23;;;;;;;12.27;8.20;;;;;;;13.51;91.24;97506.63;4167596;28;21269;-81
2023/04/22 00:56:27;;;;;;;9.97;8.53;;;;;;;13.50;90.80;97510.22;4190586;28;21033;-81
2023/04/22 00:58:31;;;;;;;9.23;8.33;;;;;;;13.47;90.89;97507.03;4186267;28;20635;-81
2023/04/22 01:00:35;;;;;;;10.60;8.30;;;;;;;13.44;91.49;97508.16;4179814;28;20643;-81
2023/04/22 01:02:38;;;;;;;9.30;8.37;;;;;;;13.43;91.07;97501.25;4165812;28;20651;-81
2023/04/22 01:04:42;;;;;;;9.40;7.90;;;;;;;13.40;90.76;97498.91;4183674;28;20678;-81
2023/04/22 01:06:47;;;;;;;9.27;8.00;;;;;;;13.39;91.08;97506.91;4183577;28;21585;-81
2023/04/22 01:08:50;;;;;;;11.83;8.43;;;;;;;13.37;91.61;97499.16;4184958;28;20650;-81
2023/04/22 01:10:53;;;;;;;10.27;8.50;;;;;;;13.38;90.76;97502.59;4173433;28;20662;-81
2023/04/22 01:12:57;;;;;;;10.40;7.93;;;;;;;13.35;91.50;97497.63;4182573;28;20634;-81
2023/04/22 01:15:01;;;;;;;9.67;8.67;;;;;;;13.33;91.28;97497.78;4184520;28;20628;-81
2023/04/22 01:17:08;;;;;;;9.23;8.33;;;;;;;13.32;91.78;97501.38;4185060;28;20617;-81
2023/04/22 01:19:12;;;;;;;9.10;8.20;;;;;;;13.30;91.62;97497.22;4169341;28;21272;-81
2023/04/22 01:21:15;;;;;;;8.83;7.93;;;;;;;13.26;90.99;97495.84;4173975;28;20634;-81
2023/04/22 01:23:21;;;;;;;10.50;8.40;;;;;;;13.24;91.44;97508.25;4187538;28;20642;-81
2023/04/22 01:25:25;;;;;;;11.70;8.10;;;;;;;13.23;91.09;97506.63;4184620;28;21108;-81
2023/04/22 01:27:28;;;;;;;9.23;7.70;;;;;;;13.21;91.07;97506.75;4172312;28;21280;-81
2023/04/22 01:29:31;;;;;;;9.23;8.20;;;;;;;13.19;92.12;97505.22;4182087;28;20713;-81
2023/04/22 01:31:36;;;;;;;8.57;7.77;;;;;;;13.19;91.94;97500.78;4165919;28;20739;-81
2023/04/22 01:33:39;;;;;;;13.33;8.80;;;;;;;13.18;92.03;97504.41;4165452;28;20649;-81
2023/04/22 01:35:42;;;;;;;9.03;7.93;;;;;;;13.18;91.37;97508.78;4183639;28;20637;-81
2023/04/22 01:37:48;;;;;;;8.80;7.90;;;;;;;13.17;91.38;97504.53;4183630;28;20641;-81
2023/04/22 01:39:52;;;;;;;9.50;8.07;;;;;;;13.18;92.03;97513.19;4174484;28;21297;-81
2023/04/22 01:41:57;;;;;;;8.77;7.87;;;;;;;13.16;91.66;97510.72;4169518;28;20626;-81
2023/04/22 01:44:03;;;;;;;9.17;7.77;;;;;;;13.16;91.67;97515.13;4166326;28;21223;-81
2023/04/22 01:46:06;;;;;;;11.37;8.50;;;;;;;13.14;91.79;97512.66;4173868;28;20656;-81
2023/04/22 01:48:10;;;;;;;8.57;7.63;;;;;;;13.12;92.04;97522.41;4183481;28;21220;-81
2023/04/22 01:50:13;;;;;;;12.40;8.40;;;;;;;13.10;92.40;97521.72;4164965;28;21238;-81
2023/04/22 01:52:17;;;;;;;9.70;8.10;;;;;;;13.10;92.05;97511.25;4186104;28;20696;-81
2023/04/22 01:54:20;;;;;;;9.20;8.10;;;;;;;13.10;92.58;97520.91;4186772;28;20646;-81
2023/04/22 01:56:27;;;;;;;8.73;7.83;;;;;;;13.09;92.52;97517.44;4182589;28;20662;-81
2023/04/22 01:58:30;;;;;;;8.57;7.63;;;;;;;13.08;92.59;97513.19;4178499;28;20666;-81
2023/04/22 02:00:33;;;;;;;9.23;8.30;;;;;;;13.08;91.51;97513.19;4184438;28;20645;-81
2023/04/22 02:02:37;;;;;;;8.90;8.00;;;;;;;13.08;92.45;97515.81;4177188;28;20627;-81
2023/04/22 02:04:40;;;;;;;9.80;8.47;;;;;;;13.06;91.86;97517.72;4180691;28;20676;-81
2023/04/22 02:06:43;;;;;;;10.67;7.70;;;;;;;13.04;92.72;97517.03;4185249;28;20649;-81
2023/04/22 02:08:46;;;;;;;9.17;8.27;;;;;;;13.04;92.52;97517.03;4181035;28;20644;-81
2023/04/22 02:10:50;;;;;;;10.40;8.17;;;;;;;13.02;91.75;97518.97;4191130;28;21258;-81
2023/04/22 02:12:54;;;;;;;10.43;8.30;;;;;;;13.01;92.28;97512.06;4170222;28;20649;-81
2023/04/22 02:14:57;;;;;;;8.80;7.90;;;;;;;13.01;92.73;97519.09;4191928;28;21242;-81
2023/04/22 02:17:02;;;;;;;9.23;8.23;;;;;;;12.99;91.82;97521.00;4167274;28;20721;-81
2023/04/22 02:19:05;;;;;;;9.13;8.23;;;;;;;12.97;92.89;97521.13;4189887;28;20624;-81
2023/04/22 02:21:09;;;;;;;12.17;9.33;;;;;;;12.94;92.18;97524.00;4174646;28;20633;-81
2023/04/22 02:23:12;;;;;;;9.37;8.03;;;;;;;12.93;91.70;97525.00;4187916;28;20715;-81
2023/04/22 02:25:18;;;;;;;11.03;8.90;;;;;;;12.91;91.40;97523.47;4201551;28;21203;-81
2023/04/22 02:27:21;;;;;;;9.10;8.20;;;;;;;12.86;92.47;97523.84;4184939;28;20631;-81
2023/04/22 02:29:27;;;;;;;10.00;7.73;;;;;;;12.84;91.89;97523.16;4187210;28;20643;-81
2023/04/22 02:31:32;;;;;;;9.77;7.87;;;;;;;12.84;92.79;97527.59;4163550;28;20751;-81
2023/04/22 02:33:36;;;;;;;9.30;7.50;;;;;;;12.81;92.70;97531.25;4182056;28;20636;-81
2023/04/22 02:35:43;;;;;;;8.97;8.07;;;;;;;12.77;92.42;97527.22;4185415;28;21174;-81
2023/04/22 02:37:54;;;;;;;10.70;8.27;;;;;;;12.75;93.03;97534.38;4186070;28;20750;-81
2023/04/22 02:40:00;;;;;;;9.10;8.10;;;;;;;12.73;92.00;97533.69;4172736;28;20650;-81
2023/04/22 02:42:04;;;;;;;9.03;8.13;;;;;;;12.71;93.24;97532.97;4161556;28;20658;-81
2023/04/22 02:44:08;;;;;;;8.93;7.97;;;;;;;12.73;93.37;97538.09;4198185;28;21323;-81
2023/04/22 02:46:14;;;;;;;9.00;8.10;;;;;;;12.70;92.86;97530.50;4188557;28;20676;-81
2023/04/22 02:48:18;;;;;;;11.73;8.13;;;;;;;12.70;92.36;97536.59;4190144;28;20984;-81
2023/04/22 02:50:21;;;;;;;9.60;8.30;;;;;;;12.68;92.53;97529.81;4189741;28;20763;-81
2023/04/22 02:52:24;;;;;;;9.40;7.60;;;;;;;12.67;92.63;97532.56;4160312;28;20623;-81
2023/04/22 02:54:30;;;;;;;9.40;8.40;;;;;;;12.67;91.98;97538.59;4184337;28;21291;-81
2023/04/22 02:56:33;;;;;;;10.40;8.00;;;;;;;12.65;92.77;97537.91;4181109;28;20637;-81
2023/04/22 02:58:36;;;;;;;8.53;7.70;;;;;;;12.64;92.15;97536.25;4191058;28;20632;-81
2023/04/22 03:00:39;;;;;;;8.27;7.47;;;;;;;12.62;93.61;97532.13;4171356;28;20667;-81
2023/04/22 03:02:44;;;;;;;9.47;8.50;;;;;;;12.61;93.73;97543.53;4189423;28;21055;-81
2023/04/22 03:04:54;;;;;;;9.10;7.90;;;;;;;12.58;93.17;97543.81;4171729;28;20702;-81
2023/04/22 03:06:57;;;;;;;8.33;7.13;;;;;;;12.57;92.66;97552.59;4183499;28;20641;-81
2023/04/22 03:09:00;;;;;;;9.00;7.43;;;;;;;12.56;93.88;97550.97;4189495;28;21099;-81
2023/04/22 03:11:04;;;;;;;8.57;7.60;;;;;;;12.53;93.18;97553.84;4176028;28;20641;-81
2023/04/22 03:13:08;;;;;;;7.70;6.90;;;;;;;12.51;92.08;97553.97;4169400;28;20643;-81
2023/04/22 03:15:12;;;;;;;9.97;7.70;;;;;;;12.48;91.88;97541.16;4164004;28;20642;-81
2023/04/22 03:17:15;;;;;;;8.00;7.20;;;;;;;12.50;93.19;97549.69;4173239;28;21442;-81
2023/04/22 03:19:20;;;;;;;9.37;7.60;;;;;;;12.48;92.27;97546.38;4187457;28;20743;-81
2023/04/22 03:21:23;;;;;;;10.80;9.03;;;;;;;12.48;92.55;97542.91;4185219;28;20638;-81
2023/04/22 03:23:27;;;;;;;8.43;7.53;;;;;;;12.50;92.34;97541.84;4182550;28;20688;-81
2023/04/22 03:25:30;;;;;;;11.07;7.60;;;;;;;12.46;92.71;97532.63;4185057;28;21119;-81
2023/04/22 03:27:33;;;;;;;9.73;7.87;;;;;;;12.45;93.60;97537.97;4171880;28;21035;-81
2023/04/22 03:29:36;;;;;;;9.27;8.33;;;;;;;12.44;94.35;97536.31;4189490;28;20724;-81
2023/04/22 03:31:41;;;;;;;9.03;7.63;;;;;;;12.42;93.95;97539.06;4182656;28;20764;-81
2023/04/22 03:33:45;;;;;;;8.63;7.83;;;;;;;12.42;93.03;97538.22;4172756;28;20647;-81
2023/04/22 03:35:58;;;;;;;8.97;8.07;;;;;;;12.40;94.07;97530.50;4189830;28;20619;-81
2023/04/22 03:38:01;;;;;;;9.70;7.53;;;;;;;12.40;93.68;97534.91;4167426;28;20662;-81
2023/04/22 03:40:09;;;;;;;8.27;7.47;;;;;;;12.39;92.88;97538.50;4189210;28;20649;-81
2023/04/22 03:42:15;;;;;;;10.97;8.37;;;;;;;12.39;92.52;97541.09;4176402;28;20648;-81
2023/04/22 03:44:19;;;;;;;9.50;7.43;;;;;;;12.38;94.34;97542.06;4193669;28;21255;-81
2023/04/22 03:46:23;;;;;;;8.80;7.47;;;;;;;12.38;93.19;97542.06;4170891;28;20702;-81
2023/04/22 03:48:41;;;;;;;8.50;7.70;;;;;;;12.36;94.15;97544.78;4205010;28;21061;-81
2023/04/22 03:50:50;;;;;;;7.90;7.10;;;;;;;12.35;93.36;97532.66;4176445;28;21008;-81
2023/04/22 03:52:55;;;;;;;8.93;8.03;;;;;;;12.34;93.90;97538.88;4166430;28;20633;-81
2023/04/22 03:54:58;;;;;;;9.27;8.30;;;;;;;12.32;93.12;97535.53;4182006;28;20775;-81
2023/04/22 03:57:01;;;;;;;9.03;8.20;;;;;;;12.32;93.57;97537.34;4189532;28;20644;-80
2023/04/22 03:59:04;;;;;;;9.83;8.30;;;;;;;12.32;94.30;97539.94;4170357;28;20643;-81
2023/04/22 04:01:10;;;;;;;9.00;8.00;;;;;;;12.32;93.16;97537.34;4188271;28;20620;-81
2023/04/22 04:03:14;;;;;;;8.67;7.77;;;;;;;12.31;92.92;97531.28;4162449;28;20630;-81
2023/04/22 04:05:19;;;;;;;8.63;7.73;;;;;;;12.30;93.52;97536.66;4184272;28;20651;-81
2023/04/22 04:07:22;;;;;;;8.90;8.00;;;;;;;12.29;93.15;97533.19;4188053;28;20661;-81
2023/04/22 04:09:27;;;;;;;10.10;8.73;;;;;;;12.28;94.30;97530.69;4200251;28;20637;-81
2023/04/22 04:11:31;;;;;;;8.50;7.70;;;;;;;12.26;92.33;97527.38;4189116;28;20685;-81
2023/04/22 04:13:35;;;;;;;9.43;8.43;;;;;;;12.26;94.29;97532.63;4176725;28;20628;-81
2023/04/22 04:15:51;;;;;;;7.77;6.97;;;;;;;12.25;92.56;97528.34;4198653;28;20630;-81
2023/04/22 04:17:55;;;;;;;10.73;8.07;;;;;;;12.24;94.35;97529.31;4171043;28;20632;-81
2023/04/22 04:20:00;;;;;;;8.40;7.60;;;;;;;12.22;93.14;97525.97;4181567;28;20641;-81
2023/04/22 04:22:05;;;;;;;8.80;7.53;;;;;;;12.21;93.16;97524.34;4185785;28;20680;-81
2023/04/22 04:24:12;;;;;;;10.23;7.87;;;;;;;12.20;93.29;97529.69;4187489;28;20639;-81
2023/04/22 04:26:22;;;;;;;8.40;7.37;;;;;;;12.18;92.37;97521.13;4193812;28;20619;-81
2023/04/22 04:28:33;;;;;;;8.47;7.67;;;;;;;12.15;93.38;97518.78;4183514;28;20676;-81
2023/04/22 04:30:37;;;;;;;9.30;7.57;;;;;;;12.16;94.34;97512.59;4185076;28;21072;-81
2023/04/22 04:32:41;;;;;;;8.03;7.23;;;;;;;12.15;93.71;97508.31;4186953;28;20695;-81
2023/04/22 04:34:47;;;;;;;8.77;7.50;;;;;;;12.16;94.36;97504.75;4171423;28;20628;-81
2023/04/22 04:36:53;;;;;;;11.97;8.37;;;;;;;12.14;94.10;97511.91;4174387;28;20666;-81
2023/04/22 04:39:03;;;;;;;9.27;8.27;;;;;;;12.14;93.08;97514.53;4165866;28;20641;-81
2023/04/22 04:41:08;;;;;;;8.83;7.90;;;;;;;12.14;93.32;97511.91;4170326;28;20686;-81
2023/04/22 04:43:13;;;;;;;8.37;7.57;;;;;;;12.13;93.24;97508.44;4185202;28;20663;-81
2023/04/22 04:45:24;;;;;;;9.97;8.13;;;;;;;12.11;92.29;97505.13;4184011;28;20635;-81
2023/04/22 04:47:28;;;;;;;8.47;7.60;;;;;;;12.10;92.89;97511.31;4189565;28;21058;-81
2023/04/22 04:49:42;;;;;;;8.77;7.70;;;;;;;12.11;93.01;97499.91;4165495;28;20644;-80
2023/04/22 04:51:45;;;;;;;9.50;7.77;;;;;;;12.11;92.79;97507.75;4183399;28;20652;-81
2023/04/22 04:53:48;;;;;;;10.90;8.43;;;;;;;12.11;93.77;97509.56;4192205;28;20630;-81
2023/04/22 04:55:52;;;;;;;8.60;7.30;;;;;;;12.11;93.94;97510.38;4160552;28;20663;-81
2023/04/22 04:57:57;;;;;;;9.23;7.27;;;;;;;12.12;94.08;97519.88;4170648;28;20653;-81
2023/04/22 05:00:02;;;;;;;9.83;8.47;;;;;;;12.11;93.70;97517.41;4185907;28;20751;-81
2023/04/22 05:02:06;;;;;;;8.90;8.00;;;;;;;12.12;94.43;97532.09;4186036;28;21191;-81
2023/04/22 05:04:10;;;;;;;8.00;7.20;;;;;;;12.12;94.40;97522.50;4169833;28;20628;-81
2023/04/22 05:06:16;;;;;;;8.93;7.77;;;;;;;12.13;93.92;97531.16;4171694;28;21270;-81
2023/04/22 05:08:24;;;;;;;8.73;7.50;;;;;;;12.13;92.39;97524.13;4175104;28;20718;-81
2023/04/22 05:10:32;;;;;;;8.50;7.30;;;;;;;12.12;94.45;97530.34;4183112;28;21280;-81
2023/04/22 05:12:36;;;;;;;9.20;7.30;;;;;;;12.13;93.56;97529.34;4186945;28;20649;-81
2023/04/22 05:14:42;;;;;;;9.20;7.30;;;;;;;12.14;93.92;97532.81;4171072;28;21191;-81
2023/04/22 05:16:46;;;;;;;8.33;7.43;;;;;;;12.16;92.92;97530.91;4190588;28;20693;-81
2023/04/22 05:18:50;;;;;;;8.40;7.60;;;;;;;12.18;92.79;97532.44;4185113;28;21349;-81
2023/04/22 05:20:54;;;;;;;8.70;7.20;;;;;;;12.20;92.72;97529.69;4185195;28;20628;-81
2023/04/22 05:22:57;;;;;;;8.40;7.20;;;;;;;12.20;92.76;97530.50;4186717;28;20626;-81
2023/04/22 05:25:00;;;;;;;7.90;7.20;;;;;;;12.19;94.63;97534.06;4188766;28;20730;-81
2023/04/22 05:27:04;;;;;;;8.03;7.20;;;;;;;12.21;93.62;97542.66;4189179;28;20693;-81
2023/04/22 05:29:08;;;;;;;8.43;7.00;;;;;;;12.21;92.83;97540.03;4186227;28;20648;-81
2023/04/22 05:31:11;;;;;;;8.20;7.40;;;;;;;12.22;94.56;97530.38;4184348;28;20643;-81
2023/04/22 05:33:16;;;;;;;11.53;7.00;;;;;;;12.23;93.57;97537.28;4166683;28;20641;-81
2023/04/22 05:35:22;;;;;;;9.50;7.73;;;;;;;12.23;92.56;97533.69;4191499;28;20679;-81
2023/04/22 05:37:26;;;;;;;8.13;7.30;;;;;;;12.25;93.18;97538.78;4190554;28;20643;-81
2023/04/22 05:39:29;;;;;;;12.27;8.17;;;;;;;12.29;94.53;97542.81;4191155;28;21233;-81
2023/04/22 05:41:34;;;;;;;9.20;8.30;;;;;;;12.29;93.31;97537.59;4184629;28;22609;-81
2023/04/22 05:43:39;;;;;;;13.50;8.33;;;;;;;12.29;93.90;97537.59;4184870;28;21010;-81
2023/04/22 05:45:46;;;;;;;9.53;8.03;;;;;;;12.32;94.92;97539.94;4174482;28;20620;-81
2023/04/22 05:47:51;;;;;;;11.93;8.23;;;;;;;12.34;94.96;97540.63;4192821;28;20640;-81
2023/04/22 05:49:56;;;;;;;8.83;7.43;;;;;;;12.36;93.65;97536.13;4186412;28;20702;-81
2023/04/22 05:52:09;;;;;;;8.50;7.60;;;;;;;12.38;93.36;97539.44;4179139;28;20711;-81
2023/04/22 05:54:24;;;;;;;10.50;8.70;;;;;;;12.42;92.85;97541.66;4181677;28;20758;-81
2023/04/22 05:56:27;;;;;;;11.70;8.57;;;;;;;12.47;94.26;97538.66;4175499;28;20679;-81
2023/04/22 05:58:31;;;;;;;9.03;8.13;;;;;;;12.53;94.39;97546.00;4191456;28;20641;-81
2023/04/22 06:00:45;;;;;;;11.90;8.87;;;;;;;12.59;93.81;97545.47;4170938;28;20679;-81
2023/04/22 06:03:17;;;;;;;9.27;8.30;;;;;;;12.64;92.34;97544.09;4189296;28;20625;-81
2023/04/22 06:05:22;;;;;;;9.57;8.10;;;;;;;12.69;92.21;97550.63;4174396;28;20727;-81
2023/04/22 06:07:25;;;;;;;10.40;8.27;;;;;;;12.75;92.65;97546.66;4184645;28;21402;-81
2023/04/22 06:09:28;;;;;;;9.70;8.27;;;;;;;12.80;92.46;97550.50;4175639;28;20630;-81
2023/04/22 06:11:32;;;;;;;12.27;8.23;;;;;;;12.88;92.00;97548.09;4196321;28;20681;-81
2023/04/22 06:13:35;;;;;;;8.73;7.80;;;;;;;12.95;92.80;97559.69;4187870;28;20648;-81
2023/04/22 06:15:38;;;;;;;10.70;7.40;;;;;;;13.00;92.75;97554.88;4187283;28;21329;-81
2023/04/22 06:17:43;;;;;;;8.70;7.90;;;;;;;13.13;92.45;97563.34;4188451;28;21723;-81
2023/04/22 06:19:46;;;;;;;10.43;9.17;;;;;;;13.23;91.71;97565.03;4174646;28;20671;-81
2023/04/22 06:21:51;;;;;;;10.03;8.97;;;;;;;13.32;90.81;97566.84;4180594;28;20699;-81
2023/04/22 06:23:54;;;;;;;10.17;8.80;;;;;;;13.37;90.29;97561.22;4170620;28;20629;-81
2023/04/22 06:25:58;;;;;;;9.87;7.80;;;;;;;13.49;91.20;97562.75;4180244;28;22509;-81
2023/04/22 06:28:01;;;;;;;9.67;8.47;;;;;;;13.60;90.98;97573.13;4179721;28;21193;-81
2023/04/22 06:30:05;;;;;;;15.30;12.23;;;;;;;13.66;90.16;97583.88;4184582;28;20674;-81
2023/04/22 06:32:09;;;;;;;12.40;9.20;;;;;;;13.76;90.38;97585.53;4177834;28;20645;-81
2023/04/22 06:34:12;;;;;;;10.47;9.47;;;;;;;13.88;90.04;97579.22;4172405;28;20726;-81
2023/04/22 06:36:15;;;;;;;9.13;8.20;;;;;;;14.05;89.83;97583.78;4173149;28;20695;-81
2023/04/22 06:38:23;;;;;;;9.60;8.67;;;;;;;14.23;89.50;97590.00;4188203;28;20642;-81
2023/04/22 06:40:47;;;;;;;12.50;9.90;;;;;;;14.45;88.85;97589.69;4167877;28;20650;-81
2023/04/22 06:42:59;;;;;;;7.80;7.00;;;;;;;14.57;87.13;97588.56;4166075;28;20695;-81
2023/04/22 06:45:21;;;;;;;7.33;6.60;;;;;;;14.75;87.13;97591.16;4183088;28;21412;-82
2023/04/22 06:47:33;;;;;;;8.70;7.90;;;;;;;14.99;85.36;97601.16;4182309;28;20642;-81
2023/04/22 06:49:45;;;;;;;9.37;7.40;;;;;;;15.13;85.20;97601.53;4188109;28;20625;-81
2023/04/22 06:51:57;;;;;;;10.30;7.77;;;;;;;15.20;85.36;97605.28;4167741;28;20638;-81
2023/04/22 06:54:02;;;;;;;7.70;6.90;;;;;;;15.18;85.46;97599.31;4183004;28;21212;-81
2023/04/22 06:56:06;;;;;;;7.37;6.67;;;;;;;15.13;84.87;97596.28;4179340;28;20645;-81
2023/04/22 06:58:09;;;;;;;7.53;6.70;;;;;;;15.09;85.84;97595.75;4182231;28;20622;-81
2023/04/22 07:00:13;;;;;;;8.50;6.40;;;;;;;15.12;84.96;97592.84;4172741;28;20644;-81
2023/04/22 07:02:17;;;;;;;7.80;6.80;;;;;;;15.17;86.24;97593.25;4159501;28;20716;-81
2023/04/22 07:04:20;;;;;;;8.53;7.63;;;;;;;15.22;85.33;97587.56;4197847;28;20630;-81
2023/04/22 07:06:24;;;;;;;8.00;7.20;;;;;;;15.33;84.18;97601.31;4160971;28;21085;-82
2023/04/22 07:08:27;;;;;;;8.57;7.23;;;;;;;15.49;83.60;97598.09;4165501;28;20667;-81
2023/04/22 07:10:32;;;;;;;7.53;6.83;;;;;;;15.64;85.08;97594.81;4172956;28;21282;-81
2023/04/22 07:13:10;;;;;;;11.50;6.70;;;;;;;15.78;83.23;97597.72;4161646;28;20791;-81
2023/04/22 07:15:13;;;;;;;6.50;5.90;;;;;;;15.84;82.26;97594.50;4159311;28;20644;-81
2023/04/22 07:17:18;;;;;;;8.63;6.30;;;;;;;15.91;82.91;97606.09;4167752;28;20643;-81
2023/04/22 07:19:21;;;;;;;6.33;5.73;;;;;;;15.97;83.67;97608.13;4167754;28;20665;-81
2023/04/22 07:21:25;;;;;;;5.90;5.30;;;;;;;16.03;83.20;97600.47;4162963;28;20654;-81
2023/04/22 07:23:28;;;;;;;6.17;5.57;;;;;;;16.13;82.80;97609.13;4168006;28;20971;-81
2023/04/22 07:25:32;;;;;;;11.40;6.20;;;;;;;16.21;80.31;97603.94;4179730;28;22015;-81
2023/04/22 07:27:36;;;;;;;20.10;5.60;;;;;;;16.28;80.25;97597.13;4184055;28;20649;-81
2023/04/22 07:29:39;;;;;;;19.67;6.60;;;;;;;16.39;79.22;97594.25;4187110;28;21192;-81
2023/04/22 07:31:43;;;;;;;9.57;5.60;;;;;;;16.44;79.82;97589.34;4188267;28;20679;-81
2023/04/22 07:33:46;;;;;;;5.20;4.70;;;;;;;16.50;79.46;97586.91;4179423;28;20687;-80
2023/04/22 07:35:50;;;;;;;5.60;4.77;;;;;;;16.62;77.81;97590.13;4163497;28;21182;-78
2023/04/22 07:37:53;;;;;;;5.90;5.07;;;;;;;16.75;78.63;97590.56;4181390;28;20627;-80
2023/04/22 07:39:56;;;;;;;5.73;5.13;;;;;;;16.97;77.72;97598.75;4184951;28;20729;-79
2023/04/22 07:42:02;;;;;;;8.97;5.90;;;;;;;17.15;79.08;97594.25;4184213;28;20658;-81
2023/04/22 07:44:05;;;;;;;8.77;5.40;;;;;;;17.38;77.72;97600.66;4183722;28;20640;-80
2023/04/22 07:46:08;;;;;;;6.10;5.50;;;;;;;17.60;76.65;97596.44;4165882;28;20794;-79
2023/04/22 07:48:11;;;;;;;7.63;5.73;;;;;;;17.79;75.89;97600.66;4186804;28;20209;-81
2023/04/22 07:50:14;;;;;;;7.97;6.70;;;;;;;18.02;74.52;97598.03;4169665;28;20640;-81
2023/04/22 07:52:18;;;;;;;7.10;6.10;;;;;;;18.20;74.40;97597.94;4187440;28;20636;-81
2023/04/22 07:54:21;;;;;;;6.73;5.83;;;;;;;18.34;74.31;97598.13;4187163;28;20651;-81
2023/04/22 07:56:25;;;;;;;5.23;4.30;;;;;;;18.54;74.16;97597.63;4187172;28;20707;-81
2023/04/22 07:58:30;;;;;;;4.57;3.50;;;;;;;18.78;73.49;97592.34;4172344;28;20643;-81
2023/04/22 08:00:33;;;;;;;7.97;3.70;;;;;;;18.92;74.03;97586.38;4173506;28;20625;-81
2023/04/22 08:02:36;;;;;;;3.57;3.27;;;;;;;19.00;70.65;97586.34;4184792;28;20790;-81
2023/04/22 08:04:40;;;;;;;5.53;2.67;;;;;;;19.08;70.16;97584.53;4189731;28;20640;-81
2023/04/22 08:06:43;;;;;;;3.77;3.07;;;;;;;19.20;71.97;97575.25;4190469;28;20621;-78
2023/04/22 08:08:46;;;;;;;3.30;2.93;;;;;;;19.27;72.16;97585.97;4189905;28;21238;-79
2023/04/22 08:10:49;;;;;;;3.70;2.93;;;;;;;19.34;68.57;97579.84;4191089;28;20646;-79
2023/04/22 08:12:52;;;;;;;3.60;2.90;;;;;;;19.44;68.77;97576.00;4182086;28;21211;-79
2023/04/22 08:14:57;;;;;;;5.40;2.87;;;;;;;19.59;68.35;97581.38;4176508;28;20756;-79
2023/04/22 08:17:01;;;;;;;3.50;2.50;;;;;;;19.71;71.91;97582.63;4204121;28;20624;-79
2023/04/22 08:19:04;;;;;;;3.20;2.90;;;;;;;19.79;70.55;97585.25;4186135;28;20758;-79
2023/04/22 08:21:07;;;;;;;4.63;2.40;;;;;;;19.91;70.54;97580.25;4197371;28;20572;-80
2023/04/22 08:23:10;;;;;;;4.43;2.60;;;;;;;20.06;71.19;97588.28;4169195;28;20640;-80
2023/04/22 08:25:14;;;;;;;3.53;2.83;;;;;;;20.15;70.96;97589.88;4189265;28;20753;-80
2023/04/22 08:27:18;;;;;;;2.88;2.38;;;;;;;20.28;69.59;97593.56;4186083;28;20753;-80
2023/04/22 08:29:22;;;;;;;2.90;2.40;;;;;;;20.35;70.82;97590.03;4192403;28;20351;-80
2023/04/22 08:31:26;;;;;;;3.80;2.40;;;;;;;20.36;69.33;97589.03;4187211;28;20645;-80
2023/04/22 08:33:30;;;;;;;3.23;2.50;;;;;;;20.42;68.31;97596.28;4181498;28;20642;-80
2023/04/22 08:35:34;;;;;;;12.37;8.20;;;;;;;20.53;68.10;97595.84;4186369;28;20636;-80
2023/04/22 08:37:38;;;;;;;7.30;5.30;;;;;;;20.64;68.30;97595.44;4169786;28;20638;-80
2023/04/22 08:39:41;;;;;;;3.63;2.77;;;;;;;20.77;69.38;97592.22;4171011;28;20634;-80
2023/04/22 08:41:45;;;;;;;2.90;2.40;;;;;;;20.79;67.26;97596.31;4185226;28;20654;-80
2023/04/22 08:43:49;;;;;;;4.03;2.30;;;;;;;20.74;66.35;97596.03;4187641;28;20791;-80
2023/04/22 08:45:52;;;;;;;3.57;2.43;;;;;;;20.65;66.84;97597.06;4188540;28;20639;-83
2023/04/22 08:47:57;;;;;;;3.00;2.50;;;;;;;20.60;67.37;97594.16;4187119;28;20738;-82
2023/04/22 08:50:03;;;;;;;2.97;2.30;;;;;;;20.55;67.09;97588.56;4190930;28;20628;-84
2023/04/22 08:52:08;;;;;;;3.20;2.27;;;;;;;20.42;66.51;97593.63;4186442;28;21056;-81
2023/04/22 08:54:11;;;;;;;2.53;2.33;;;;;;;20.34;66.26;97592.84;4163895;28;20690;-79
2023/04/22 08:56:15;;;;;;;2.47;2.27;;;;;;;20.25;67.15;97593.94;4176177;28;20629;-80
2023/04/22 08:58:19;;;;;;;3.13;2.60;;;;;;;20.19;64.97;97593.78;4182003;28;20690;-80
2023/04/22 09:00:22;;;;;;;3.17;2.80;;;;;;;20.15;64.77;97593.34;4186332;28;21049;-80
2023/04/22 09:02:27;;;;;;;3.80;2.60;;;;;;;20.22;65.85;97589.00;4172870;28;20645;-80
2023/04/22 09:04:32;;;;;;;2.67;2.33;;;;;;;20.37;65.03;97590.69;4184089;28;21050;-79
2023/04/22 09:06:35;;;;;;;7.73;5.10;;;;;;;20.67;66.77;97596.91;4183871;28;20674;-80
2023/04/22 09:08:38;;;;;;;3.60;2.80;;;;;;;20.94;66.33;97595.38;4185494;28;21015;-80
2023/04/22 09:10:42;;;;;;;3.03;2.53;;;;;;;21.29;67.01;97598.13;4184204;28;20620;-80
2023/04/22 09:12:46;;;;;;;3.13;2.50;;;;;;;21.58;66.89;97603.47;4185939;28;20623;-81
2023/04/22 09:14:51;;;;;;;3.27;2.17;;;;;;;21.81;67.05;97602.34;4191634;28;20651;-81
2023/04/22 09:16:58;;;;;;;3.73;2.40;;;;;;;21.95;63.03;97590.03;4184518;28;20642;-80
2023/04/22 09:19:01;;;;;;;2.73;2.27;;;;;;;21.90;61.59;97589.78;4171135;28;20640;-80
2023/04/22 09:21:08;;;;;;;3.27;2.40;;;;;;;21.77;60.63;97586.97;4169869;28;20641;-83
2023/04/22 09:23:12;;;;;;;3.87;3.47;;;;;;;21.75;63.43;97588.97;4167383;28;20636;-82
2023/04/22 09:25:17;;;;;;;4.70;3.13;;;;;;;21.71;63.38;97584.22;4170894;28;20709;-80
2023/04/22 09:27:23;;;;;;;5.83;2.83;;;;;;;21.63;63.91;97579.81;4185239;28;20650;-80
2023/04/22 09:29:30;;;;;;;7.70;5.63;;;;;;;21.62;64.38;97586.16;4187365;28;20662;-80
2023/04/22 09:31:33;;;;;;;3.17;2.57;;;;;;;21.66;62.98;97579.47;4165407;28;21027;-80
2023/04/22 09:33:38;;;;;;;2.67;2.20;;;;;;;21.83;64.90;97578.22;4187627;28;20970;-80
2023/04/22 09:35:42;;;;;;;2.30;2.10;;;;;;;22.01;61.83;97578.66;4183969;28;21121;-80
2023/04/22 09:37:51;;;;;;;3.50;2.40;;;;;;;22.10;62.27;97582.84;4187736;28;20632;-80
2023/04/22 09:39:54;;;;;;;3.40;2.00;;;;;;;22.25;61.60;97580.00;4190516;28;21532;-80
2023/04/22 09:41:58;;;;;;;3.10;2.40;;;;;;;22.34;62.02;97584.16;4185944;28;21043;-80
2023/04/22 09:44:03;;;;;;;4.27;2.03;;;;;;;22.33;60.12;97584.34;4187724;28;20616;-80
2023/04/22 09:46:06;;;;;;;3.17;2.30;;;;;;;22.36;61.02;97582.13;4185370;28;20628;-80